Time;durP1;ratioP1;P1;durP2;ratioP2;P2;SDS_P1;SDS_P2;PMS_P1;PMS_P2;Temp;Humidity;BMP_temperature;BMP_pressure;BME280_temperature;BME280_humidity;BME280_pressure;Samples;Min_cycle;Max_cycle;Signal;HPM_P1;HPM_P2
2021/01/06 00:00:44;;;;;;;19.65;13.90;;;3.80;99.90;;;;;;4963750;28;20031;-87
2021/01/06 00:03:12;;;;;;;22.40;15.10;;;3.80;99.90;;;;;;4955708;28;20027;-87
2021/01/06 00:05:39;;;;;;;23.33;14.18;;;3.80;99.90;;;;;;4974067;28;20026;-89
2021/01/06 00:08:04;;;;;;;20.55;13.38;;;3.80;99.90;;;;;;4975437;28;20029;-87
2021/01/06 00:10:30;;;;;;;19.95;12.98;;;3.80;99.90;;;;;;4965701;28;20099;-87
2021/01/06 00:12:57;;;;;;;20.75;13.60;;;3.80;99.90;;;;;;4956560;28;20031;-85
2021/01/06 00:15:29;;;;;;;17.60;11.48;;;3.80;99.90;;;;;;4939766;28;20069;-87
2021/01/06 00:17:54;;;;;;;18.95;12.15;;;3.80;99.90;;;;;;4956018;28;20046;-86
2021/01/06 00:20:23;;;;;;;20.02;12.27;;;3.70;99.90;;;;;;4956445;28;20043;-87
2021/01/06 00:22:49;;;;;;;22.08;14.48;;;3.70;99.90;;;;;;4940136;28;20031;-87
2021/01/06 00:25:27;;;;;;;22.00;13.52;;;3.70;99.90;;;;;;4979081;28;20535;-87
2021/01/06 00:27:52;;;;;;;22.75;13.77;;;3.70;99.90;;;;;;4940552;28;20031;-87
2021/01/06 00:30:45;;;;;;;21.05;12.57;;;3.70;99.90;;;;;;4954232;28;20092;-86
2021/01/06 00:33:13;;;;;;;19.45;12.75;;;3.70;99.90;;;;;;4969806;28;20408;-87
2021/01/06 00:35:40;;;;;;;21.58;12.55;;;3.70;99.90;;;;;;4975379;28;20532;-85
2021/01/06 00:38:05;;;;;;;27.88;15.35;;;3.70;99.90;;;;;;4957103;28;20035;-87
2021/01/06 00:40:34;;;;;;;26.10;14.75;;;3.70;99.90;;;;;;4959132;28;20086;-87
2021/01/06 00:43:06;;;;;;;25.45;15.38;;;3.70;99.90;;;;;;4973055;28;20021;-87
2021/01/06 00:45:33;;;;;;;22.98;14.32;;;3.70;99.90;;;;;;4946105;28;20027;-88
2021/01/06 00:47:59;;;;;;;20.83;13.23;;;3.70;99.90;;;;;;4959746;28;20031;-88
2021/01/06 00:50:27;;;;;;;24.63;15.48;;;3.70;99.90;;;;;;4959196;28;20815;-87
2021/01/06 00:52:59;;;;;;;24.55;14.15;;;3.70;99.90;;;;;;4960486;28;20038;-87
2021/01/06 00:55:25;;;;;;;24.30;15.80;;;3.70;99.90;;;;;;4967556;28;20081;-88
2021/01/06 00:57:51;;;;;;;27.75;15.95;;;3.70;99.90;;;;;;4979825;28;20026;-87
2021/01/06 01:00:20;;;;;;;20.73;13.48;;;3.70;99.90;;;;;;4972698;28;20038;-88
2021/01/06 01:02:50;;;;;;;23.00;13.80;;;3.70;99.90;;;;;;4960633;28;20034;-88
2021/01/06 01:05:18;;;;;;;24.73;14.93;;;3.70;99.90;;;;;;4961856;28;20041;-88
2021/01/06 01:07:44;;;;;;;22.33;13.80;;;3.70;99.90;;;;;;4960750;28;20054;-88
2021/01/06 01:10:34;;;;;;;22.65;14.13;;;3.70;99.90;;;;;;4965983;28;20564;-88
2021/01/06 01:13:03;;;;;;;22.45;14.05;;;3.70;99.90;;;;;;4949030;28;20027;-85
2021/01/06 01:15:32;;;;;;;24.05;14.32;;;3.70;99.90;;;;;;4974311;28;20030;-86
2021/01/06 01:17:59;;;;;;;21.17;14.18;;;3.70;99.90;;;;;;4960635;28;20031;-87
2021/01/06 01:20:25;;;;;;;23.67;14.70;;;3.70;99.90;;;;;;4962225;28;20046;-88
2021/01/06 01:22:54;;;;;;;22.70;13.57;;;3.70;99.90;;;;;;4968184;28;20003;-87
2021/01/06 01:25:23;;;;;;;20.05;12.65;;;3.70;99.90;;;;;;4997244;28;20033;-87
2021/01/06 01:27:49;;;;;;;22.25;13.38;;;3.70;99.90;;;;;;4986808;28;20018;-88
2021/01/06 01:30:18;;;;;;;20.23;12.07;;;3.70;99.90;;;;;;5009768;28;20075;-87
2021/01/06 01:32:45;;;;;;;22.30;13.38;;;3.70;99.90;;;;;;4990393;28;20022;-87
2021/01/06 01:35:31;;;;;;;21.30;13.57;;;3.70;99.90;;;;;;4979837;28;20024;-86
2021/01/06 01:38:03;;;;;;;22.38;12.73;;;3.70;99.90;;;;;;4971287;28;20030;-88
2021/01/06 01:40:39;;;;;;;19.70;13.63;;;3.70;99.90;;;;;;4962926;28;20042;-89
2021/01/06 01:43:07;;;;;;;23.92;14.10;;;3.70;99.90;;;;;;4962408;28;20051;-87
2021/01/06 01:45:59;;;;;;;21.98;14.15;;;3.70;99.90;;;;;;4944765;29;20031;-87
2021/01/06 01:48:33;;;;;;;21.92;13.60;;;3.70;99.90;;;;;;4926533;29;20083;-88
2021/01/06 01:51:06;;;;;;;22.15;12.93;;;3.60;99.90;;;;;;4941318;29;20118;-87
2021/01/06 01:53:41;;;;;;;21.77;13.38;;;3.60;99.90;;;;;;4958123;29;20019;-87
2021/01/06 01:56:10;;;;;;;19.40;12.55;;;3.60;99.90;;;;;;4940832;29;20027;-87
2021/01/06 01:58:38;;;;;;;18.63;12.02;;;3.60;99.90;;;;;;4940748;29;20027;-87
2021/01/06 02:01:04;;;;;;;19.38;11.98;;;3.60;99.90;;;;;;4940592;29;20047;-86
2021/01/06 02:03:45;;;;;;;23.58;13.63;;;3.60;99.90;;;;;;4940495;29;20062;-87
2021/01/06 02:06:19;;;;;;;23.90;15.15;;;3.60;99.90;;;;;;4957668;29;20031;-87
2021/01/06 02:09:04;;;;;;;21.05;14.07;;;3.60;99.90;;;;;;4957778;29;20467;-86
2021/01/06 02:11:40;;;;;;;18.33;12.35;;;3.60;99.90;;;;;;4940915;29;20035;-87
2021/01/06 02:14:16;;;;;;;19.40;13.60;;;3.60;99.90;;;;;;4940636;29;20065;-86
2021/01/06 02:17:02;;;;;;;19.92;13.07;;;3.60;99.90;;;;;;4940730;29;20023;-87
2021/01/06 02:19:32;;;;;;;18.55;13.02;;;3.60;99.90;;;;;;4940662;29;20040;-88
2021/01/06 02:21:58;;;;;;;20.77;13.73;;;3.60;99.90;;;;;;4925104;29;20031;-88
2021/01/06 02:24:24;;;;;;;17.00;12.50;;;3.60;99.90;;;;;;4957582;29;20027;-88
2021/01/06 02:26:50;;;;;;;18.75;12.68;;;3.60;99.90;;;;;;4940730;29;20098;-87
2021/01/06 02:29:16;;;;;;;19.15;13.07;;;3.60;99.90;;;;;;4940457;29;20477;-89
2021/01/06 02:31:42;;;;;;;20.67;13.13;;;3.50;99.90;;;;;;4940506;29;20389;-87
2021/01/06 02:34:09;;;;;;;18.40;13.23;;;3.50;99.90;;;;;;4957630;29;20031;-86
2021/01/06 02:36:36;;;;;;;20.92;13.80;;;3.50;99.90;;;;;;4940767;29;20027;-88
2021/01/06 02:39:04;;;;;;;19.60;12.93;;;3.50;99.90;;;;;;4957359;29;20459;-87
2021/01/06 02:41:29;;;;;;;20.10;12.90;;;3.60;99.90;;;;;;4939812;29;20625;-87
2021/01/06 02:43:55;;;;;;;19.88;13.52;;;3.50;99.90;;;;;;4940020;29;20081;-88
2021/01/06 02:46:21;;;;;;;21.40;13.73;;;3.50;99.90;;;;;;4939840;29;20023;-88
2021/01/06 02:48:47;;;;;;;22.13;14.45;;;3.50;99.90;;;;;;4939769;29;20423;-89
2021/01/06 02:51:17;;;;;;;19.00;13.13;;;3.50;99.90;;;;;;4940089;29;20024;-88
2021/01/06 02:53:53;;;;;;;20.48;13.38;;;3.50;99.90;;;;;;4940172;29;20043;-88
2021/01/06 02:56:21;;;;;;;19.08;13.35;;;3.50;99.90;;;;;;4940224;29;20030;-87
2021/01/06 02:58:48;;;;;;;22.75;13.88;;;3.50;99.90;;;;;;4956682;29;20038;-87
2021/01/06 03:01:18;;;;;;;20.73;14.18;;;3.40;99.90;;;;;;4939177;29;20038;-87
2021/01/06 03:03:45;;;;;;;20.20;13.07;;;3.40;99.90;;;;;;4956759;29;20023;-88
2021/01/06 03:06:18;;;;;;;19.92;13.38;;;3.40;99.90;;;;;;4939911;29;20023;-87
2021/01/06 03:08:43;;;;;;;21.05;14.25;;;3.40;99.90;;;;;;4956820;29;20098;-87
2021/01/06 03:11:09;;;;;;;19.52;13.52;;;3.40;99.90;;;;;;4939769;29;20162;-88
2021/01/06 03:13:36;;;;;;;18.65;13.07;;;3.40;99.90;;;;;;4939365;29;20019;-87
2021/01/06 03:16:02;;;;;;;22.80;14.90;;;3.40;99.90;;;;;;4956488;29;20046;-86
2021/01/06 03:18:28;;;;;;;18.85;12.88;;;3.40;99.90;;;;;;4939387;29;20039;-87
2021/01/06 03:20:58;;;;;;;22.15;14.13;;;3.40;99.90;;;;;;4938992;29;20054;-87
2021/01/06 03:23:33;;;;;;;21.23;14.30;;;3.40;99.90;;;;;;4939440;29;20015;-86
2021/01/06 03:26:02;;;;;;;19.77;13.70;;;3.40;99.90;;;;;;4939577;29;20034;-86
2021/01/06 03:28:31;;;;;;;20.25;13.38;;;3.40;99.90;;;;;;4939367;29;20081;-87
2021/01/06 03:30:58;;;;;;;21.77;14.18;;;3.30;99.90;;;;;;4939566;29;20046;-87
2021/01/06 03:33:29;;;;;;;23.63;14.93;;;3.40;99.90;;;;;;4941286;29;20051;-88
2021/01/06 03:35:58;;;;;;;18.55;13.88;;;3.30;99.90;;;;;;4957776;29;20371;-87
2021/01/06 03:38:30;;;;;;;16.83;12.38;;;3.40;99.90;;;;;;4949465;29;20027;-88
2021/01/06 03:40:56;;;;;;;20.65;14.20;;;3.30;99.90;;;;;;4939349;29;20137;-87
2021/01/06 03:43:25;;;;;;;21.85;14.02;;;3.30;99.90;;;;;;4939008;29;20077;-86
2021/01/06 03:45:54;;;;;;;17.92;12.82;;;3.30;99.90;;;;;;4938932;29;20114;-87
2021/01/06 03:48:52;;;;;;;19.88;13.73;;;3.30;99.90;;;;;;4937904;29;20023;-87
2021/01/06 03:51:40;;;;;;;21.80;14.85;;;3.40;99.90;;;;;;4938210;29;20102;-87
2021/01/06 03:54:34;;;;;;;19.92;13.27;;;3.30;99.90;;;;;;4955792;29;20031;-87
2021/01/06 03:57:02;;;;;;;19.73;13.73;;;3.30;99.90;;;;;;4938236;29;20118;-88
2021/01/06 03:59:34;;;;;;;22.00;14.45;;;3.30;99.90;;;;;;4938609;29;20496;-87
2021/01/06 04:02:18;;;;;;;20.20;13.95;;;3.30;99.90;;;;;;4938296;29;20042;-88
2021/01/06 04:04:48;;;;;;;21.35;14.35;;;3.30;99.90;;;;;;4955580;29;20384;-88
2021/01/06 04:07:34;;;;;;;21.40;14.45;;;3.30;99.90;;;;;;4956039;29;20034;-88
2021/01/06 04:10:02;;;;;;;21.85;14.30;;;3.30;99.90;;;;;;4956076;29;20035;-87
2021/01/06 04:12:28;;;;;;;24.05;14.13;;;3.30;99.90;;;;;;4938281;29;20029;-87
2021/01/06 04:14:54;;;;;;;19.73;13.02;;;3.30;99.90;;;;;;4938811;29;20431;-87
2021/01/06 04:17:22;;;;;;;17.63;12.23;;;3.30;99.90;;;;;;4938862;29;20118;-87
2021/01/06 04:19:59;;;;;;;20.90;14.02;;;3.30;99.90;;;;;;4956011;29;20031;-88
2021/01/06 04:22:40;;;;;;;20.60;13.02;;;3.20;99.90;;;;;;4938848;29;20504;-88
2021/01/06 04:25:14;;;;;;;19.25;12.70;;;3.30;99.90;;;;;;4939049;29;20548;-86
2021/01/06 04:27:41;;;;;;;19.77;13.10;;;3.30;99.90;;;;;;4938894;29;20078;-88
2021/01/06 04:30:18;;;;;;;23.63;15.65;;;3.30;99.90;;;;;;4938639;29;20019;-87
2021/01/06 04:32:44;;;;;;;19.52;13.38;;;3.20;99.90;;;;;;4938456;29;20549;-88
2021/01/06 04:35:12;;;;;;;25.65;15.02;;;3.20;99.90;;;;;;4956029;29;20106;-87
2021/01/06 04:37:38;;;;;;;23.33;14.15;;;3.20;99.90;;;;;;4956009;29;20031;-88
2021/01/06 04:40:04;;;;;;;21.25;13.45;;;3.30;99.90;;;;;;4938098;29;20509;-87
2021/01/06 04:42:31;;;;;;;19.98;13.52;;;3.30;99.90;;;;;;4954715;29;20031;-87
2021/01/06 04:45:05;;;;;;;19.35;12.77;;;3.30;99.90;;;;;;4938543;29;20031;-87
2021/01/06 04:47:45;;;;;;;17.20;12.27;;;3.30;99.90;;;;;;4938142;29;20493;-87
2021/01/06 04:50:30;;;;;;;18.92;11.77;;;3.20;99.90;;;;;;4938504;29;20074;-88
2021/01/06 04:53:01;;;;;;;20.63;13.02;;;3.20;99.90;;;;;;4938897;29;20474;-88
2021/01/06 04:55:47;;;;;;;17.80;12.77;;;3.20;99.90;;;;;;4938868;29;20058;-87
2021/01/06 04:58:51;;;;;;;16.58;11.57;;;3.20;99.90;;;;;;4938957;29;20023;-88
2021/01/06 05:01:37;;;;;;;19.92;12.70;;;3.10;99.90;;;;;;4938717;29;20554;-88
2021/01/06 05:04:21;;;;;;;18.63;11.82;;;3.10;99.90;;;;;;4939260;29;20055;-89
2021/01/06 05:07:19;;;;;;;19.10;12.48;;;3.20;99.90;;;;;;4938748;29;20055;-87
2021/01/06 05:10:29;;;;;;;18.92;11.95;;;3.00;99.90;;;;;;4938930;29;20023;-89
2021/01/06 05:13:01;;;;;;;17.13;11.32;;;3.00;99.90;;;;;;4939333;29;20047;-89
2021/01/06 05:15:49;;;;;;;17.27;11.93;;;3.10;99.90;;;;;;4938657;29;20489;-86
2021/01/06 05:18:15;;;;;;;19.92;13.55;;;3.10;99.90;;;;;;4938465;29;20474;-89
2021/01/06 05:20:41;;;;;;;23.27;13.73;;;3.10;99.90;;;;;;4938347;29;20038;-88
2021/01/06 05:23:16;;;;;;;18.38;13.00;;;3.10;99.90;;;;;;4938586;29;20034;-90
2021/01/06 05:25:42;;;;;;;18.83;12.50;;;3.10;99.90;;;;;;4942331;29;20031;-89
2021/01/06 05:28:12;;;;;;;18.70;12.05;;;3.00;99.90;;;;;;4926111;29;20019;-88
2021/01/06 05:30:38;;;;;;;22.13;13.38;;;3.00;99.90;;;;;;4942265;29;20055;-89
2021/01/06 05:33:07;;;;;;;21.38;12.85;;;3.10;99.90;;;;;;4941996;29;20035;-89
2021/01/06 05:35:41;;;;;;;19.13;12.57;;;3.10;99.90;;;;;;4941805;29;20114;-88
2021/01/06 05:38:08;;;;;;;18.48;12.77;;;3.10;99.90;;;;;;4942209;29;20119;-90
2021/01/06 05:40:36;;;;;;;19.63;12.93;;;3.00;99.90;;;;;;4942327;29;20031;-89
2021/01/06 05:43:18;;;;;;;18.45;11.98;;;3.00;99.90;;;;;;4942399;29;20027;-89
2021/01/06 05:45:55;;;;;;;18.08;11.82;;;3.00;99.90;;;;;;4941931;29;20114;-89
2021/01/06 05:48:46;;;;;;;19.42;11.95;;;2.90;99.90;;;;;;4941750;28;20031;-88
2021/01/06 05:51:25;;;;;;;17.20;11.70;;;2.90;99.90;;;;;;4941743;29;20027;-90
2021/01/06 05:53:58;;;;;;;18.00;12.10;;;2.90;99.90;;;;;;4942136;29;20075;-90
2021/01/06 05:56:51;;;;;;;19.08;11.93;;;2.90;99.90;;;;;;4941709;29;20094;-89
2021/01/06 05:59:50;;;;;;;17.98;10.40;;;2.90;99.90;;;;;;4942144;29;20023;-90
2021/01/06 06:03:05;;;;;;;15.90;11.00;;;2.90;99.90;;;;;;4936640;29;20049;-90
2021/01/06 06:05:43;;;;;;;16.92;10.90;;;2.90;99.90;;;;;;4920667;29;20039;-89
2021/01/06 06:08:08;;;;;;;15.63;10.55;;;2.90;99.90;;;;;;4942103;29;20459;-91
2021/01/06 06:11:05;;;;;;;16.80;10.20;;;2.80;99.90;;;;;;4941886;29;20038;-89
2021/01/06 06:14:11;;;;;;;16.02;10.85;;;2.90;99.90;;;;;;4949920;29;20039;-88
2021/01/06 06:16:55;;;;;;;15.15;9.88;;;2.90;99.90;;;;;;4940918;29;20019;-92
2021/01/06 06:19:53;;;;;;;16.40;10.15;;;2.80;99.90;;;;;;4950015;28;20023;-90
2021/01/06 06:22:26;;;;;;;13.63;9.60;;;2.80;99.90;;;;;;4955391;29;20043;-92
2021/01/06 06:25:22;;;;;;;13.70;9.82;;;2.80;99.90;;;;;;4943374;29;20054;-89
2021/01/06 06:27:52;;;;;;;14.10;8.90;;;2.80;99.90;;;;;;4958605;28;20043;-89
2021/01/06 06:30:32;;;;;;;11.88;7.93;;;2.80;99.90;;;;;;4970563;28;20031;-89
2021/01/06 06:32:59;;;;;;;15.45;8.82;;;2.70;99.90;;;;;;4998605;28;20031;-89
2021/01/06 06:35:48;;;;;;;14.30;9.45;;;2.70;99.90;;;;;;4975958;28;20113;-89
2021/01/06 06:38:16;;;;;;;14.05;9.93;;;2.70;99.90;;;;;;4960923;28;20505;-89
2021/01/06 06:40:50;;;;;;;12.90;8.80;;;2.60;99.90;;;;;;4960382;28;20065;-89
2021/01/06 06:43:33;;;;;;;13.75;9.15;;;2.60;99.90;;;;;;4960681;28;20031;-89
2021/01/06 06:46:31;;;;;;;16.38;10.25;;;2.60;99.90;;;;;;4961306;28;20027;-87
2021/01/06 06:49:18;;;;;;;15.45;9.93;;;2.50;99.90;;;;;;4957429;28;20055;-88
2021/01/06 06:51:52;;;;;;;14.38;9.07;;;2.50;99.90;;;;;;4976710;28;20054;-88
2021/01/06 06:54:44;;;;;;;;;;;2.40;99.90;;;;;;4983597;28;20054;-89
2021/01/06 06:57:22;;;;;;;14.63;8.88;;;2.30;99.90;;;;;;4981455;28;19929;-89
2021/01/06 07:00:02;;;;;;;12.68;8.55;;;2.30;99.90;;;;;;4977836;28;20034;-88
2021/01/06 07:02:28;;;;;;;13.68;8.38;;;2.30;99.90;;;;;;4979981;28;20015;-88
2021/01/06 07:05:00;;;;;;;15.10;9.05;;;2.20;99.90;;;;;;4979993;28;20064;-88
2021/01/06 07:07:49;;;;;;;13.63;8.77;;;2.20;99.90;;;;;;4979708;28;20042;-88
2021/01/06 07:10:25;;;;;;;13.48;8.30;;;2.20;99.90;;;;;;4976421;28;20046;-87
2021/01/06 07:12:55;;;;;;;15.20;7.80;;;2.10;99.90;;;;;;4959517;28;20019;-87
2021/01/06 07:15:38;;;;;;;14.32;9.23;;;2.10;99.90;;;;;;4959118;28;20097;-87
2021/01/06 07:18:19;;;;;;;;;;;2.10;99.90;;;;;;4959562;28;20093;-87
2021/01/06 07:20:45;;;;;;;19.98;10.05;;;2.00;99.90;;;;;;4959060;28;19914;-87
2021/01/06 07:23:22;;;;;;;13.40;9.10;;;2.10;99.90;;;;;;4959236;28;20030;-88
2021/01/06 07:26:04;;;;;;;13.82;9.02;;;2.10;99.90;;;;;;4960161;28;20023;-91
2021/01/06 07:28:30;;;;;;;12.88;8.77;;;2.20;99.90;;;;;;4960918;28;20034;-89
2021/01/06 07:31:17;;;;;;;12.40;8.48;;;2.30;99.90;;;;;;4959363;28;20027;-90
2021/01/06 07:33:45;;;;;;;14.60;9.10;;;2.30;99.90;;;;;;4959833;28;20029;-88
2021/01/06 07:36:22;;;;;;;15.43;9.52;;;2.40;99.90;;;;;;4959144;28;20373;-90
2021/01/06 07:38:49;;;;;;;14.90;9.13;;;2.50;99.90;;;;;;4959093;28;20026;-90
2021/01/06 07:41:16;;;;;;;13.05;8.98;;;2.50;99.90;;;;;;4958854;28;20031;-90
2021/01/06 07:44:00;;;;;;;14.52;9.43;;;2.50;99.90;;;;;;4958671;28;20026;-89
2021/01/06 07:46:30;;;;;;;14.48;9.32;;;2.60;99.90;;;;;;4957885;28;20026;-90
2021/01/06 07:49:40;;;;;;;14.45;9.05;;;2.60;99.90;;;;;;4958659;28;20346;-91
2021/01/06 07:52:26;;;;;;;14.30;9.00;;;2.60;99.90;;;;;;4962255;28;20039;-89
2021/01/06 07:55:16;;;;;;;12.73;7.82;;;2.60;99.90;;;;;;4958644;28;20023;-90
2021/01/06 07:57:48;;;;;;;12.88;7.93;;;2.70;99.90;;;;;;4958782;28;20027;-89
2021/01/06 08:00:17;;;;;;;12.65;7.53;;;2.70;99.90;;;;;;4958844;28;20062;-90
2021/01/06 08:02:58;;;;;;;12.35;8.07;;;2.80;99.90;;;;;;4958611;28;20026;-89
2021/01/06 08:05:29;;;;;;;13.93;8.07;;;2.70;99.90;;;;;;4975595;28;20023;-89
2021/01/06 08:08:14;;;;;;;12.75;8.68;;;2.80;99.90;;;;;;4958628;28;20597;-89
2021/01/06 08:10:42;;;;;;;13.52;8.80;;;2.80;99.90;;;;;;4976609;28;20065;-90
2021/01/06 08:13:23;;;;;;;18.85;12.77;;;2.70;99.90;;;;;;4958922;28;20089;-91
2021/01/06 08:15:53;;;;;;;16.73;10.23;;;2.80;99.90;;;;;;4958199;28;20066;-89
2021/01/06 08:18:30;;;;;;;17.38;10.13;;;2.80;99.90;;;;;;4958788;28;20130;-90
2021/01/06 08:21:06;;;;;;;16.23;10.50;;;2.80;99.90;;;;;;4958483;28;20049;-90
2021/01/06 08:23:58;;;;;;;14.43;9.07;;;2.80;99.90;;;;;;4958450;28;20019;-89
2021/01/06 08:26:26;;;;;;;14.43;9.27;;;2.80;99.90;;;;;;4958336;28;20046;-89
2021/01/06 08:29:11;;;;;;;15.35;9.15;;;2.90;99.90;;;;;;4975510;28;20034;-88
2021/01/06 08:31:38;;;;;;;21.40;12.02;;;2.80;99.90;;;;;;4958184;28;20030;-90
2021/01/06 08:34:06;;;;;;;17.40;10.60;;;2.90;99.90;;;;;;4959100;28;20019;-89
2021/01/06 08:36:42;;;;;;;14.45;10.25;;;2.80;99.90;;;;;;4963340;28;20038;-89
2021/01/06 08:39:20;;;;;;;17.10;10.45;;;2.90;99.90;;;;;;4968035;28;20019;-89
2021/01/06 08:41:47;;;;;;;16.92;10.50;;;2.90;99.90;;;;;;4961050;28;20042;-90
2021/01/06 08:44:30;;;;;;;19.05;12.07;;;2.80;99.90;;;;;;4959729;28;20079;-90
2021/01/06 08:46:59;;;;;;;16.55;10.20;;;2.90;99.90;;;;;;4960161;28;20041;-90
2021/01/06 08:49:29;;;;;;;18.02;11.38;;;2.80;99.90;;;;;;4959867;28;20098;-89
2021/01/06 08:52:17;;;;;;;16.17;10.35;;;2.80;99.90;;;;;;4959401;28;20030;-90
2021/01/06 08:55:20;;;;;;;15.80;9.95;;;2.80;99.90;;;;;;4959536;28;20026;-90
2021/01/06 08:58:09;;;;;;;14.75;9.90;;;2.80;99.90;;;;;;4959879;28;20027;-93
2021/01/06 09:00:35;;;;;;;16.45;9.52;;;2.80;99.90;;;;;;4963509;28;20038;-93
2021/01/06 09:03:06;;;;;;;16.75;10.95;;;2.90;99.90;;;;;;4962933;28;20033;-90
2021/01/06 09:05:54;;;;;;;13.98;9.68;;;2.90;99.90;;;;;;4962780;28;20085;-90
2021/01/06 09:08:22;;;;;;;15.10;9.52;;;2.90;99.90;;;;;;4962745;28;20053;-88
2021/01/06 09:11:11;;;;;;;14.35;10.10;;;2.90;99.90;;;;;;4961961;28;20114;-90
2021/01/06 09:13:52;;;;;;;16.30;9.82;;;2.90;99.90;;;;;;4977604;28;20477;-89
2021/01/06 09:16:46;;;;;;;16.42;10.27;;;2.90;99.90;;;;;;4977514;28;20552;-89
2021/01/06 09:19:11;;;;;;;;;;;3.00;99.90;;;;;;4978980;28;20034;-90
2021/01/06 09:21:39;;;;;;;13.65;9.13;;;2.90;99.90;;;;;;4977761;28;19918;-88
2021/01/06 09:24:14;;;;;;;16.67;10.32;;;3.00;99.90;;;;;;4978947;28;20015;-92
2021/01/06 09:26:52;;;;;;;14.80;10.43;;;3.00;99.90;;;;;;4980161;28;20089;-93
2021/01/06 09:29:20;;;;;;;15.48;10.18;;;3.00;99.90;;;;;;4978230;28;20019;-92
2021/01/06 09:32:00;;;;;;;16.48;10.77;;;3.00;99.90;;;;;;4978658;28;20780;-91
2021/01/06 09:34:38;;;;;;;15.15;10.38;;;3.10;99.90;;;;;;4978324;28;20121;-92
2021/01/06 09:37:05;;;;;;;14.90;10.00;;;3.10;99.90;;;;;;4977406;28;20556;-89
2021/01/06 09:39:38;;;;;;;15.43;10.57;;;3.10;99.90;;;;;;4983603;28;20054;-92
2021/01/06 09:42:05;;;;;;;13.07;9.38;;;3.10;99.90;;;;;;4986243;28;20053;-92
2021/01/06 09:44:32;;;;;;;16.15;10.50;;;3.10;99.90;;;;;;4960201;28;20026;-94
2021/01/06 09:47:02;;;;;;;14.57;10.07;;;3.20;99.90;;;;;;4975378;28;20034;-92
2021/01/06 09:49:39;;;;;;;14.88;10.07;;;3.20;99.90;;;;;;4983415;28;20118;-87
2021/01/06 09:52:20;;;;;;;14.70;9.80;;;3.30;99.90;;;;;;4986367;28;20061;-87
2021/01/06 09:54:50;;;;;;;15.80;10.00;;;3.20;99.90;;;;;;5005701;28;20073;-89
2021/01/06 09:57:19;;;;;;;14.15;9.82;;;3.20;99.90;;;;;;4966019;28;20062;-89
2021/01/06 09:59:50;;;;;;;13.07;8.93;;;3.20;99.90;;;;;;5001172;28;20073;-88
2021/01/06 10:02:29;;;;;;;15.38;9.30;;;3.20;99.90;;;;;;4966166;28;20077;-91
2021/01/06 10:05:05;;;;;;;14.32;9.95;;;3.30;99.90;;;;;;4980296;28;20030;-89
2021/01/06 10:07:55;;;;;;;14.32;9.23;;;3.30;99.90;;;;;;4979741;28;20029;-88
2021/01/06 10:10:26;;;;;;;14.93;9.85;;;3.30;99.90;;;;;;4979564;28;20030;-90
2021/01/06 10:12:55;;;;;;;17.70;10.15;;;3.30;99.90;;;;;;4980492;28;20065;-90
2021/01/06 10:15:35;;;;;;;16.92;10.52;;;3.30;99.90;;;;;;4980928;28;20031;-91
2021/01/06 10:18:11;;;;;;;17.50;10.55;;;3.30;99.90;;;;;;4981546;28;20061;-91
2021/01/06 10:20:55;;;;;;;13.82;9.93;;;3.40;99.90;;;;;;4980295;28;20069;-91
2021/01/06 10:23:38;;;;;;;16.10;10.30;;;3.40;99.90;;;;;;4979965;28;20113;-90
2021/01/06 10:26:23;;;;;;;14.30;9.38;;;3.40;99.90;;;;;;4979699;28;20376;-91
2021/01/06 10:28:50;;;;;;;15.15;9.70;;;3.40;99.90;;;;;;4979062;28;20034;-90
2021/01/06 10:31:26;;;;;;;15.45;9.85;;;3.40;99.90;;;;;;4979221;28;20026;-90
2021/01/06 10:34:18;;;;;;;13.00;9.18;;;3.50;99.90;;;;;;4980787;28;20109;-92
2021/01/06 10:37:02;;;;;;;13.77;9.10;;;3.50;99.90;;;;;;4980172;28;20128;-92
2021/01/06 10:39:53;;;;;;;14.20;9.48;;;3.50;99.90;;;;;;4977996;28;20110;-91
2021/01/06 10:42:21;;;;;;;13.90;9.73;;;3.50;99.90;;;;;;4957729;28;20050;-90
2021/01/06 10:45:07;;;;;;;16.52;9.88;;;3.60;99.90;;;;;;4957261;28;20069;-91
2021/01/06 10:47:32;;;;;;;12.52;8.68;;;3.60;99.90;;;;;;4957306;28;20118;-87
2021/01/06 10:50:23;;;;;;;11.90;8.43;;;3.60;99.90;;;;;;4973166;28;20130;-92
2021/01/06 10:53:03;;;;;;;15.60;8.95;;;3.60;99.90;;;;;;4959429;28;20038;-88
2021/01/06 10:55:47;;;;;;;12.38;7.90;;;3.60;99.90;;;;;;4958739;28;20165;-86
2021/01/06 10:58:59;;;;;;;13.10;8.43;;;3.70;99.90;;;;;;4975981;28;20030;-86
2021/01/06 11:01:37;;;;;;;11.05;6.60;;;3.70;99.90;;;;;;4958702;28;20043;-89
2021/01/06 11:04:40;;;;;;;11.93;6.90;;;3.70;99.90;;;;;;4958827;28;20050;-89
2021/01/06 11:07:26;;;;;;;11.20;6.67;;;3.70;99.90;;;;;;4957812;28;20038;-88
2021/01/06 11:10:23;;;;;;;10.77;6.32;;;3.70;99.90;;;;;;4958311;28;20621;-89
2021/01/06 11:13:26;;;;;;;11.27;6.78;;;3.70;99.90;;;;;;4958527;28;20034;-87
2021/01/06 11:16:10;;;;;;;10.10;5.72;;;3.70;99.90;;;;;;4959204;28;20081;-90
2021/01/06 11:18:42;;;;;;;11.27;7.15;;;3.70;99.90;;;;;;4957928;28;20031;-88
2021/01/06 11:21:10;;;;;;;8.43;5.63;;;3.70;99.90;;;;;;4954095;28;20039;-88
2021/01/06 11:23:42;;;;;;;10.98;6.13;;;3.60;99.90;;;;;;4958413;28;20022;-88
2021/01/06 11:26:31;;;;;;;9.32;5.82;;;3.70;99.90;;;;;;4976066;28;20023;-89
2021/01/06 11:29:21;;;;;;;9.90;6.10;;;3.60;99.90;;;;;;4959693;28;20039;-89
2021/01/06 11:31:50;;;;;;;10.30;6.03;;;3.70;99.90;;;;;;4966581;29;20025;-87
2021/01/06 11:34:21;;;;;;;7.45;4.78;;;3.70;99.90;;;;;;4966932;28;20026;-91
2021/01/06 11:36:53;;;;;;;12.70;6.85;;;3.70;99.90;;;;;;4978227;28;20057;-86
2021/01/06 11:39:28;;;;;;;10.30;5.40;;;3.80;99.90;;;;;;4992706;28;20019;-87
2021/01/06 11:42:11;;;;;;;9.57;5.75;;;3.80;99.90;;;;;;4996478;28;20086;-90
2021/01/06 11:44:45;;;;;;;8.93;4.78;;;3.90;99.90;;;;;;4993388;28;20393;-92
2021/01/06 11:47:30;;;;;;;8.07;5.05;;;3.90;99.90;;;;;;4959768;28;20486;-89
2021/01/06 11:50:01;;;;;;;7.78;4.55;;;4.00;99.90;;;;;;4958214;28;20038;-89
2021/01/06 11:52:36;;;;;;;8.82;5.22;;;4.00;99.90;;;;;;4958683;28;20035;-90
2021/01/06 11:55:13;;;;;;;9.68;5.00;;;4.00;99.90;;;;;;4960034;28;20507;-90
2021/01/06 11:58:00;;;;;;;6.97;4.40;;;3.90;99.90;;;;;;4958210;28;20070;-90
2021/01/06 12:00:37;;;;;;;8.75;4.90;;;4.00;99.90;;;;;;4958488;28;20035;-88
2021/01/06 12:03:06;;;;;;;7.32;4.32;;;4.00;99.90;;;;;;4958391;28;20038;-88
2021/01/06 12:05:35;;;;;;;6.60;4.13;;;4.00;99.90;;;;;;4959588;28;20039;-89
2021/01/06 12:08:11;;;;;;;6.75;4.03;;;4.10;99.90;;;;;;4959405;28;20026;-89
2021/01/06 12:11:02;;;;;;;7.38;4.22;;;4.10;99.90;;;;;;4960048;28;20031;-88
2021/01/06 12:13:45;;;;;;;6.50;3.60;;;4.20;99.90;;;;;;4959451;28;20035;-88
2021/01/06 12:16:19;;;;;;;6.78;3.80;;;4.20;99.90;;;;;;4960621;28;20045;-87
2021/01/06 12:19:07;;;;;;;7.95;4.63;;;4.30;99.90;;;;;;4960310;28;20038;-87
2021/01/06 12:21:41;;;;;;;9.65;5.10;;;4.30;99.90;;;;;;4960123;28;20050;-88
2021/01/06 12:24:29;;;;;;;6.75;4.22;;;4.30;99.90;;;;;;4961368;28;20019;-88
2021/01/06 12:26:57;;;;;;;7.68;4.40;;;4.30;99.90;;;;;;4960217;28;20034;-87
2021/01/06 12:29:28;;;;;;;6.43;4.00;;;4.30;99.90;;;;;;4978180;28;20085;-89
2021/01/06 12:32:00;;;;;;;7.32;4.45;;;4.30;99.90;;;;;;4944453;28;20027;-89
2021/01/06 12:34:36;;;;;;;7.70;3.92;;;4.20;99.90;;;;;;4963808;28;20027;-89
2021/01/06 12:37:25;;;;;;;8.02;4.78;;;4.20;99.90;;;;;;4980857;28;20031;-88
2021/01/06 12:40:12;;;;;;;4.95;3.38;;;4.30;99.90;;;;;;4963787;28;20026;-88
2021/01/06 12:42:43;;;;;;;6.45;3.65;;;4.30;99.90;;;;;;4962779;28;20054;-87
2021/01/06 12:45:15;;;;;;;6.07;3.83;;;4.30;99.90;;;;;;4962711;28;20023;-87
2021/01/06 12:47:44;;;;;;;5.88;3.72;;;4.30;99.90;;;;;;4961907;28;20039;-88
2021/01/06 12:50:23;;;;;;;6.05;3.42;;;4.30;99.90;;;;;;4961242;28;20050;-88
2021/01/06 12:52:57;;;;;;;6.65;3.17;;;4.40;99.90;;;;;;4979466;28;20106;-88
2021/01/06 12:55:47;;;;;;;5.35;3.28;;;4.40;99.90;;;;;;4962135;28;20466;-88
2021/01/06 12:58:27;;;;;;;7.18;3.90;;;4.40;99.90;;;;;;4961055;28;20122;-87
2021/01/06 13:01:25;;;;;;;7.35;3.22;;;4.40;99.90;;;;;;4961524;28;20389;-87
2021/01/06 13:03:57;;;;;;;4.93;3.15;;;4.30;99.90;;;;;;4962189;28;20027;-88
2021/01/06 13:06:41;;;;;;;6.25;3.25;;;4.30;99.90;;;;;;4961767;28;20031;-86
2021/01/06 13:09:32;;;;;;;5.90;3.58;;;4.30;99.90;;;;;;4962333;28;20038;-87
2021/01/06 13:12:17;;;;;;;5.82;3.33;;;4.20;99.90;;;;;;4961942;28;20027;-87
2021/01/06 13:15:05;;;;;;;8.77;3.60;;;4.10;99.90;;;;;;4961409;28;20038;-87
2021/01/06 13:17:40;;;;;;;6.38;3.35;;;4.10;99.90;;;;;;4961048;28;20038;-85
2021/01/06 13:20:13;;;;;;;6.60;3.05;;;4.00;99.90;;;;;;4978095;28;20031;-87
2021/01/06 13:22:42;;;;;;;5.97;2.97;;;4.10;99.90;;;;;;4961594;28;20038;-88
2021/01/06 13:25:33;;;;;;;5.38;3.00;;;4.00;99.90;;;;;;4962015;28;20114;-88
2021/01/06 13:28:24;;;;;;;5.53;3.10;;;4.00;99.90;;;;;;4954634;28;20035;-88